sensor_id;sensor_type;location;lat;lon;timestamp;temperature;humidity
16700;DHT22;8466;52.286;21.124;2022-07-23T00:00:54;19.70;99.90
16700;DHT22;8466;52.286;21.124;2022-07-23T00:03:24;19.70;99.90
16700;DHT22;8466;52.286;21.124;2022-07-23T00:05:53;19.70;99.90
16700;DHT22;8466;52.286;21.124;2022-07-23T00:08:22;19.60;99.90
16700;DHT22;8466;52.286;21.124;2022-07-23T00:10:51;19.50;99.90
16700;DHT22;8466;52.286;21.124;2022-07-23T00:13:19;19.50;99.90
16700;DHT22;8466;52.286;21.124;2022-07-23T00:15:48;19.40;99.90
16700;DHT22;8466;52.286;21.124;2022-07-23T00:18:17;19.40;99.90
16700;DHT22;8466;52.286;21.124;2022-07-23T00:20:47;19.40;99.90
16700;DHT22;8466;52.286;21.124;2022-07-23T00:23:15;19.40;99.90
16700;DHT22;8466;52.286;21.124;2022-07-23T00:25:47;19.30;99.90
16700;DHT22;8466;52.286;21.124;2022-07-23T00:28:17;19.30;99.90
16700;DHT22;8466;52.286;21.124;2022-07-23T00:30:47;19.30;99.90
16700;DHT22;8466;52.286;21.124;2022-07-23T00:33:15;19.30;99.90
16700;DHT22;8466;52.286;21.124;2022-07-23T00:35:45;19.20;99.90
16700;DHT22;8466;52.286;21.124;2022-07-23T00:38:14;19.20;99.90
16700;DHT22;8466;52.286;21.124;2022-07-23T00:40:43;19.20;99.90
16700;DHT22;8466;52.286;21.124;2022-07-23T00:43:11;19.20;99.90
16700;DHT22;8466;52.286;21.124;2022-07-23T00:45:40;19.20;99.90
16700;DHT22;8466;52.286;21.124;2022-07-23T00:48:09;19.20;99.90
16700;DHT22;8466;52.286;21.124;2022-07-23T00:50:38;19.10;99.90
16700;DHT22;8466;52.286;21.124;2022-07-23T00:53:08;19.10;99.90
16700;DHT22;8466;52.286;21.124;2022-07-23T00:55:38;19.10;99.90
16700;DHT22;8466;52.286;21.124;2022-07-23T00:58:07;19.00;99.90
16700;DHT22;8466;52.286;21.124;2022-07-23T01:00:36;18.90;99.90
16700;DHT22;8466;52.286;21.124;2022-07-23T01:03:05;18.90;99.90
16700;DHT22;8466;52.286;21.124;2022-07-23T01:05:34;18.80;99.90
16700;DHT22;8466;52.286;21.124;2022-07-23T01:08:03;18.70;99.90
16700;DHT22;8466;52.286;21.124;2022-07-23T01:10:35;18.70;99.90
16700;DHT22;8466;52.286;21.124;2022-07-23T01:13:06;18.70;99.90
16700;DHT22;8466;52.286;21.124;2022-07-23T01:15:36;18.60;99.90
16700;DHT22;8466;52.286;21.124;2022-07-23T01:18:06;18.60;99.90
16700;DHT22;8466;52.286;21.124;2022-07-23T01:20:35;18.60;99.90
16700;DHT22;8466;52.286;21.124;2022-07-23T01:23:06;18.60;99.90
16700;DHT22;8466;52.286;21.124;2022-07-23T01:25:52;18.60;99.90
16700;DHT22;8466;52.286;21.124;2022-07-23T01:28:21;18.50;99.90
16700;DHT22;8466;52.286;21.124;2022-07-23T01:30:50;18.60;99.90
16700;DHT22;8466;52.286;21.124;2022-07-23T01:33:19;18.60;99.90
16700;DHT22;8466;52.286;21.124;2022-07-23T01:35:48;18.60;99.90
16700;DHT22;8466;52.286;21.124;2022-07-23T01:38:18;18.60;99.90
16700;DHT22;8466;52.286;21.124;2022-07-23T01:40:46;18.50;99.90
16700;DHT22;8466;52.286;21.124;2022-07-23T01:43:20;18.50;99.90
16700;DHT22;8466;52.286;21.124;2022-07-23T01:45:53;18.50;99.90
16700;DHT22;8466;52.286;21.124;2022-07-23T01:48:22;18.40;99.90
16700;DHT22;8466;52.286;21.124;2022-07-23T01:50:50;18.40;99.90
16700;DHT22;8466;52.286;21.124;2022-07-23T01:53:21;18.30;99.90
16700;DHT22;8466;52.286;21.124;2022-07-23T01:55:49;18.30;99.90
16700;DHT22;8466;52.286;21.124;2022-07-23T01:58:18;18.30;99.90
16700;DHT22;8466;52.286;21.124;2022-07-23T02:00:47;18.30;99.90
16700;DHT22;8466;52.286;21.124;2022-07-23T02:03:15;18.30;99.90
16700;DHT22;8466;52.286;21.124;2022-07-23T02:05:44;18.20;99.90
16700;DHT22;8466;52.286;21.124;2022-07-23T02:08:13;18.20;99.90
16700;DHT22;8466;52.286;21.124;2022-07-23T02:10:43;18.20;99.90
16700;DHT22;8466;52.286;21.124;2022-07-23T02:13:12;18.30;99.90
16700;DHT22;8466;52.286;21.124;2022-07-23T02:15:45;18.20;99.90
16700;DHT22;8466;52.286;21.124;2022-07-23T02:18:13;18.20;99.90
16700;DHT22;8466;52.286;21.124;2022-07-23T02:20:42;18.20;99.90
16700;DHT22;8466;52.286;21.124;2022-07-23T02:23:11;18.20;99.90
16700;DHT22;8466;52.286;21.124;2022-07-23T02:25:40;18.20;99.90
16700;DHT22;8466;52.286;21.124;2022-07-23T02:28:10;18.20;99.90
16700;DHT22;8466;52.286;21.124;2022-07-23T02:30:39;18.20;99.90
16700;DHT22;8466;52.286;21.124;2022-07-23T02:33:07;18.10;99.90
16700;DHT22;8466;52.286;21.124;2022-07-23T02:35:36;18.10;99.90
16700;DHT22;8466;52.286;21.124;2022-07-23T02:38:05;18.10;99.90
16700;DHT22;8466;52.286;21.124;2022-07-23T02:40:33;18.10;99.90
16700;DHT22;8466;52.286;21.124;2022-07-23T02:43:02;18.10;99.90
16700;DHT22;8466;52.286;21.124;2022-07-23T02:45:32;18.10;99.90
16700;DHT22;8466;52.286;21.124;2022-07-23T02:48:01;18.20;99.90
16700;DHT22;8466;52.286;21.124;2022-07-23T02:50:30;18.20;99.90
16700;DHT22;8466;52.286;21.124;2022-07-23T02:52:58;18.10;99.90
16700;DHT22;8466;52.286;21.124;2022-07-23T02:55:27;18.20;99.90
16700;DHT22;8466;52.286;21.124;2022-07-23T02:57:55;18.10;99.90
16700;DHT22;8466;52.286;21.124;2022-07-23T03:00:24;18.20;99.90
16700;DHT22;8466;52.286;21.124;2022-07-23T03:02:54;18.10;99.90
16700;DHT22;8466;52.286;21.124;2022-07-23T03:05:23;18.10;99.90
16700;DHT22;8466;52.286;21.124;2022-07-23T03:07:52;18.20;99.90
16700;DHT22;8466;52.286;21.124;2022-07-23T03:10:20;18.20;99.90
16700;DHT22;8466;52.286;21.124;2022-07-23T03:12:49;18.20;99.90
16700;DHT22;8466;52.286;21.124;2022-07-23T03:15:18;18.20;99.90
16700;DHT22;8466;52.286;21.124;2022-07-23T03:17:47;18.30;99.90
16700;DHT22;8466;52.286;21.124;2022-07-23T03:20:17;18.30;99.90
16700;DHT22;8466;52.286;21.124;2022-07-23T03:22:45;18.30;99.90
16700;DHT22;8466;52.286;21.124;2022-07-23T03:25:14;18.40;99.90
16700;DHT22;8466;52.286;21.124;2022-07-23T03:27:43;18.40;99.90
16700;DHT22;8466;52.286;21.124;2022-07-23T03:30:12;18.50;99.90
16700;DHT22;8466;52.286;21.124;2022-07-23T03:32:41;18.50;99.90
16700;DHT22;8466;52.286;21.124;2022-07-23T03:35:10;18.60;99.90
16700;DHT22;8466;52.286;21.124;2022-07-23T03:37:40;18.60;99.90
16700;DHT22;8466;52.286;21.124;2022-07-23T03:40:09;18.70;99.90
16700;DHT22;8466;52.286;21.124;2022-07-23T03:42:38;18.80;99.90
16700;DHT22;8466;52.286;21.124;2022-07-23T03:45:09;18.90;99.90
16700;DHT22;8466;52.286;21.124;2022-07-23T03:47:38;18.90;99.90
16700;DHT22;8466;52.286;21.124;2022-07-23T03:50:08;19.00;99.90
16700;DHT22;8466;52.286;21.124;2022-07-23T03:52:37;19.10;99.90
16700;DHT22;8466;52.286;21.124;2022-07-23T03:55:07;19.20;99.90
16700;DHT22;8466;52.286;21.124;2022-07-23T03:57:36;19.30;99.90
16700;DHT22;8466;52.286;21.124;2022-07-23T04:00:06;19.40;99.90
16700;DHT22;8466;52.286;21.124;2022-07-23T04:02:36;19.60;99.90
16700;DHT22;8466;52.286;21.124;2022-07-23T04:05:06;19.80;99.90
16700;DHT22;8466;52.286;21.124;2022-07-23T04:07:35;20.00;99.90
16700;DHT22;8466;52.286;21.124;2022-07-23T04:10:05;20.30;99.90
16700;DHT22;8466;52.286;21.124;2022-07-23T04:12:35;20.80;99.90
16700;DHT22;8466;52.286;21.124;2022-07-23T04:15:06;21.30;99.90
16700;DHT22;8466;52.286;21.124;2022-07-23T04:17:35;22.40;99.90
16700;DHT22;8466;52.286;21.124;2022-07-23T04:20:04;23.80;99.90
16700;DHT22;8466;52.286;21.124;2022-07-23T04:22:33;25.40;99.90
16700;DHT22;8466;52.286;21.124;2022-07-23T04:25:02;26.80;99.90
16700;DHT22;8466;52.286;21.124;2022-07-23T04:27:31;27.90;99.90
16700;DHT22;8466;52.286;21.124;2022-07-23T04:30:02;28.80;99.90
16700;DHT22;8466;52.286;21.124;2022-07-23T04:32:31;29.60;99.90
16700;DHT22;8466;52.286;21.124;2022-07-23T04:35:01;30.10;99.10
16700;DHT22;8466;52.286;21.124;2022-07-23T04:37:30;30.50;97.90
16700;DHT22;8466;52.286;21.124;2022-07-23T04:39:59;30.80;97.20
16700;DHT22;8466;52.286;21.124;2022-07-23T04:42:27;31.00;96.70
16700;DHT22;8466;52.286;21.124;2022-07-23T04:44:56;31.20;95.90
16700;DHT22;8466;52.286;21.124;2022-07-23T04:47:26;31.10;94.90
16700;DHT22;8466;52.286;21.124;2022-07-23T04:49:55;30.50;95.30
16700;DHT22;8466;52.286;21.124;2022-07-23T04:52:24;29.90;95.90
16700;DHT22;8466;52.286;21.124;2022-07-23T04:54:53;29.20;96.50
16700;DHT22;8466;52.286;21.124;2022-07-23T04:57:21;28.10;97.90
16700;DHT22;8466;52.286;21.124;2022-07-23T04:59:52;27.10;99.70
16700;DHT22;8466;52.286;21.124;2022-07-23T05:02:21;26.20;99.90
16700;DHT22;8466;52.286;21.124;2022-07-23T05:04:51;25.70;99.90
16700;DHT22;8466;52.286;21.124;2022-07-23T05:07:20;25.40;99.90
16700;DHT22;8466;52.286;21.124;2022-07-23T05:09:49;25.30;99.90
16700;DHT22;8466;52.286;21.124;2022-07-23T05:12:17;25.10;99.90
16700;DHT22;8466;52.286;21.124;2022-07-23T05:14:47;24.90;99.90
16700;DHT22;8466;52.286;21.124;2022-07-23T05:17:17;24.70;99.90
16700;DHT22;8466;52.286;21.124;2022-07-23T05:19:48;24.60;99.90
16700;DHT22;8466;52.286;21.124;2022-07-23T05:22:28;24.50;99.90
16700;DHT22;8466;52.286;21.124;2022-07-23T05:24:57;24.40;99.90
16700;DHT22;8466;52.286;21.124;2022-07-23T05:27:26;24.30;99.90
16700;DHT22;8466;52.286;21.124;2022-07-23T05:29:54;24.30;99.90
16700;DHT22;8466;52.286;21.124;2022-07-23T05:32:25;24.20;99.90
16700;DHT22;8466;52.286;21.124;2022-07-23T05:34:54;24.20;99.90
16700;DHT22;8466;52.286;21.124;2022-07-23T05:37:22;24.20;99.90
16700;DHT22;8466;52.286;21.124;2022-07-23T05:39:53;24.30;99.90
16700;DHT22;8466;52.286;21.124;2022-07-23T05:42:21;24.30;99.90
16700;DHT22;8466;52.286;21.124;2022-07-23T05:44:50;24.30;99.90
16700;DHT22;8466;52.286;21.124;2022-07-23T05:47:19;24.30;99.90
16700;DHT22;8466;52.286;21.124;2022-07-23T05:49:49;24.30;99.90
16700;DHT22;8466;52.286;21.124;2022-07-23T05:52:23;24.30;99.90
16700;DHT22;8466;52.286;21.124;2022-07-23T05:54:53;24.30;99.90
16700;DHT22;8466;52.286;21.124;2022-07-23T05:57:22;24.30;99.90
16700;DHT22;8466;52.286;21.124;2022-07-23T05:59:54;24.30;99.90
16700;DHT22;8466;52.286;21.124;2022-07-23T06:02:25;24.30;99.90
16700;DHT22;8466;52.286;21.124;2022-07-23T06:04:54;24.30;99.90
16700;DHT22;8466;52.286;21.124;2022-07-23T06:07:23;24.40;99.90
16700;DHT22;8466;52.286;21.124;2022-07-23T06:09:53;24.50;99.90
16700;DHT22;8466;52.286;21.124;2022-07-23T06:12:22;24.50;99.90
16700;DHT22;8466;52.286;21.124;2022-07-23T06:14:51;24.60;99.90
16700;DHT22;8466;52.286;21.124;2022-07-23T06:17:20;24.60;99.90
16700;DHT22;8466;52.286;21.124;2022-07-23T06:19:52;24.70;99.90
16700;DHT22;8466;52.286;21.124;2022-07-23T06:22:22;24.80;99.90
16700;DHT22;8466;52.286;21.124;2022-07-23T06:24:52;24.80;99.90
16700;DHT22;8466;52.286;21.124;2022-07-23T06:27:21;24.80;99.90
16700;DHT22;8466;52.286;21.124;2022-07-23T06:29:52;24.90;99.90
16700;DHT22;8466;52.286;21.124;2022-07-23T06:32:22;25.10;99.90
16700;DHT22;8466;52.286;21.124;2022-07-23T06:34:50;25.10;99.90
16700;DHT22;8466;52.286;21.124;2022-07-23T06:37:19;25.20;99.90
16700;DHT22;8466;52.286;21.124;2022-07-23T06:39:48;25.30;99.90
16700;DHT22;8466;52.286;21.124;2022-07-23T06:42:18;25.40;99.90
16700;DHT22;8466;52.286;21.124;2022-07-23T06:44:47;25.40;99.90
16700;DHT22;8466;52.286;21.124;2022-07-23T06:47:16;25.50;99.90
16700;DHT22;8466;52.286;21.124;2022-07-23T06:49:44;25.60;99.90
16700;DHT22;8466;52.286;21.124;2022-07-23T06:52:13;25.70;99.90
16700;DHT22;8466;52.286;21.124;2022-07-23T06:54:42;25.80;99.90
16700;DHT22;8466;52.286;21.124;2022-07-23T06:57:11;25.90;99.90
16700;DHT22;8466;52.286;21.124;2022-07-23T06:59:41;26.00;99.90
16700;DHT22;8466;52.286;21.124;2022-07-23T07:02:09;26.20;99.90
16700;DHT22;8466;52.286;21.124;2022-07-23T07:04:38;26.20;99.90
16700;DHT22;8466;52.286;21.124;2022-07-23T07:07:07;26.20;99.90
16700;DHT22;8466;52.286;21.124;2022-07-23T07:09:36;26.20;99.90
16700;DHT22;8466;52.286;21.124;2022-07-23T07:12:05;26.30;99.90
16700;DHT22;8466;52.286;21.124;2022-07-23T07:14:34;26.30;99.90
16700;DHT22;8466;52.286;21.124;2022-07-23T07:17:04;26.40;99.90
16700;DHT22;8466;52.286;21.124;2022-07-23T07:19:33;26.40;99.90
16700;DHT22;8466;52.286;21.124;2022-07-23T07:22:02;26.50;99.90
16700;DHT22;8466;52.286;21.124;2022-07-23T07:24:31;26.50;99.90
16700;DHT22;8466;52.286;21.124;2022-07-23T07:27:04;26.60;99.90
16700;DHT22;8466;52.286;21.124;2022-07-23T07:29:33;26.70;99.90
16700;DHT22;8466;52.286;21.124;2022-07-23T07:32:02;26.70;99.90
16700;DHT22;8466;52.286;21.124;2022-07-23T07:34:33;26.80;99.90
16700;DHT22;8466;52.286;21.124;2022-07-23T07:37:01;26.90;99.90
16700;DHT22;8466;52.286;21.124;2022-07-23T07:39:30;26.90;99.90
16700;DHT22;8466;52.286;21.124;2022-07-23T07:41:59;26.90;99.90
16700;DHT22;8466;52.286;21.124;2022-07-23T07:44:27;27.00;99.90
16700;DHT22;8466;52.286;21.124;2022-07-23T07:46:56;26.90;99.90
16700;DHT22;8466;52.286;21.124;2022-07-23T07:49:25;27.00;99.90
16700;DHT22;8466;52.286;21.124;2022-07-23T07:52:02;26.90;99.90
16700;DHT22;8466;52.286;21.124;2022-07-23T07:54:31;27.00;99.90
16700;DHT22;8466;52.286;21.124;2022-07-23T07:57:03;27.10;99.90
16700;DHT22;8466;52.286;21.124;2022-07-23T07:59:34;27.00;99.90
16700;DHT22;8466;52.286;21.124;2022-07-23T08:02:03;27.10;99.90
16700;DHT22;8466;52.286;21.124;2022-07-23T08:04:32;27.30;99.90
16700;DHT22;8466;52.286;21.124;2022-07-23T08:07:03;27.30;99.90
16700;DHT22;8466;52.286;21.124;2022-07-23T08:09:32;27.40;99.90
16700;DHT22;8466;52.286;21.124;2022-07-23T08:12:01;27.40;99.90
16700;DHT22;8466;52.286;21.124;2022-07-23T08:14:30;27.40;99.90
16700;DHT22;8466;52.286;21.124;2022-07-23T08:16:59;27.50;99.90
16700;DHT22;8466;52.286;21.124;2022-07-23T08:19:40;27.60;99.90
16700;DHT22;8466;52.286;21.124;2022-07-23T08:22:11;27.70;99.90
16700;DHT22;8466;52.286;21.124;2022-07-23T08:24:39;27.70;99.90
16700;DHT22;8466;52.286;21.124;2022-07-23T08:27:08;27.70;99.40
16700;DHT22;8466;52.286;21.124;2022-07-23T08:29:37;27.90;99.40
16700;DHT22;8466;52.286;21.124;2022-07-23T08:32:06;27.90;99.80
16700;DHT22;8466;52.286;21.124;2022-07-23T08:34:56;28.00;99.60
16700;DHT22;8466;52.286;21.124;2022-07-23T08:37:26;28.00;99.10
16700;DHT22;8466;52.286;21.124;2022-07-23T08:39:54;28.00;98.90
16700;DHT22;8466;52.286;21.124;2022-07-23T08:42:23;28.10;99.80
16700;DHT22;8466;52.286;21.124;2022-07-23T08:44:53;28.20;98.70
16700;DHT22;8466;52.286;21.124;2022-07-23T08:47:22;28.20;98.30
16700;DHT22;8466;52.286;21.124;2022-07-23T08:49:52;28.30;97.90
16700;DHT22;8466;52.286;21.124;2022-07-23T08:52:21;28.30;97.10
16700;DHT22;8466;52.286;21.124;2022-07-23T08:54:55;28.40;97.40
16700;DHT22;8466;52.286;21.124;2022-07-23T08:57:25;28.30;98.00
16700;DHT22;8466;52.286;21.124;2022-07-23T08:59:54;28.40;97.30
16700;DHT22;8466;52.286;21.124;2022-07-23T09:02:23;28.40;97.20
16700;DHT22;8466;52.286;21.124;2022-07-23T09:04:51;28.40;95.70
16700;DHT22;8466;52.286;21.124;2022-07-23T09:07:20;28.50;96.50
16700;DHT22;8466;52.286;21.124;2022-07-23T09:10:05;28.50;95.80
16700;DHT22;8466;52.286;21.124;2022-07-23T09:12:34;28.50;96.00
16700;DHT22;8466;52.286;21.124;2022-07-23T09:15:08;28.60;95.50
16700;DHT22;8466;52.286;21.124;2022-07-23T09:17:42;28.60;95.40
16700;DHT22;8466;52.286;21.124;2022-07-23T09:20:12;28.60;94.30
16700;DHT22;8466;52.286;21.124;2022-07-23T09:22:44;28.60;95.10
16700;DHT22;8466;52.286;21.124;2022-07-23T09:25:17;28.60;94.10
16700;DHT22;8466;52.286;21.124;2022-07-23T09:27:52;28.60;93.70
16700;DHT22;8466;52.286;21.124;2022-07-23T09:30:23;28.60;92.60
16700;DHT22;8466;52.286;21.124;2022-07-23T09:33:09;28.70;92.70
16700;DHT22;8466;52.286;21.124;2022-07-23T09:35:49;28.70;93.50
16700;DHT22;8466;52.286;21.124;2022-07-23T09:38:22;28.80;93.50
16700;DHT22;8466;52.286;21.124;2022-07-23T09:43:47;28.80;93.80
16700;DHT22;8466;52.286;21.124;2022-07-23T09:46:24;28.90;93.70
16700;DHT22;8466;52.286;21.124;2022-07-23T09:48:56;28.90;93.30
16700;DHT22;8466;52.286;21.124;2022-07-23T09:51:30;28.90;91.60
16700;DHT22;8466;52.286;21.124;2022-07-23T09:54:04;29.00;91.50
16700;DHT22;8466;52.286;21.124;2022-07-23T09:56:36;29.10;92.90
16700;DHT22;8466;52.286;21.124;2022-07-23T09:59:07;29.20;93.40
16700;DHT22;8466;52.286;21.124;2022-07-23T10:01:39;29.20;92.60
16700;DHT22;8466;52.286;21.124;2022-07-23T10:04:12;29.20;92.60
16700;DHT22;8466;52.286;21.124;2022-07-23T10:06:44;29.20;92.50
16700;DHT22;8466;52.286;21.124;2022-07-23T10:09:17;29.10;92.90
16700;DHT22;8466;52.286;21.124;2022-07-23T10:11:50;29.20;93.30
16700;DHT22;8466;52.286;21.124;2022-07-23T10:14:27;29.30;93.30
16700;DHT22;8466;52.286;21.124;2022-07-23T10:17:02;29.30;92.50
16700;DHT22;8466;52.286;21.124;2022-07-23T10:19:34;29.30;92.70
16700;DHT22;8466;52.286;21.124;2022-07-23T10:22:09;29.30;92.70
16700;DHT22;8466;52.286;21.124;2022-07-23T10:24:53;29.30;93.10
16700;DHT22;8466;52.286;21.124;2022-07-23T10:27:44;29.40;92.60
16700;DHT22;8466;52.286;21.124;2022-07-23T10:30:30;29.50;91.80
16700;DHT22;8466;52.286;21.124;2022-07-23T10:33:17;29.50;91.50
16700;DHT22;8466;52.286;21.124;2022-07-23T10:35:59;29.50;91.70
16700;DHT22;8466;52.286;21.124;2022-07-23T10:38:32;29.50;92.10
16700;DHT22;8466;52.286;21.124;2022-07-23T10:41:07;29.50;92.60
16700;DHT22;8466;52.286;21.124;2022-07-23T10:43:40;29.50;92.50
16700;DHT22;8466;52.286;21.124;2022-07-23T10:46:24;29.60;91.90
16700;DHT22;8466;52.286;21.124;2022-07-23T10:49:27;29.70;92.20
16700;DHT22;8466;52.286;21.124;2022-07-23T10:52:22;29.40;91.10
16700;DHT22;8466;52.286;21.124;2022-07-23T10:54:56;29.50;91.50
16700;DHT22;8466;52.286;21.124;2022-07-23T10:57:26;29.50;91.90
16700;DHT22;8466;52.286;21.124;2022-07-23T11:00:21;29.60;91.60
16700;DHT22;8466;52.286;21.124;2022-07-23T11:02:54;29.70;91.50
16700;DHT22;8466;52.286;21.124;2022-07-23T11:05:38;29.70;91.00
16700;DHT22;8466;52.286;21.124;2022-07-23T11:08:27;29.80;91.30
16700;DHT22;8466;52.286;21.124;2022-07-23T11:11:09;29.90;90.20
16700;DHT22;8466;52.286;21.124;2022-07-23T11:13:46;30.00;88.40
16700;DHT22;8466;52.286;21.124;2022-07-23T11:16:22;30.00;89.90
16700;DHT22;8466;52.286;21.124;2022-07-23T11:19:05;30.10;89.90
16700;DHT22;8466;52.286;21.124;2022-07-23T11:21:49;30.10;90.00
16700;DHT22;8466;52.286;21.124;2022-07-23T11:24:29;30.20;90.70
16700;DHT22;8466;52.286;21.124;2022-07-23T11:27:03;30.20;90.50
16700;DHT22;8466;52.286;21.124;2022-07-23T11:29:54;30.20;90.50
16700;DHT22;8466;52.286;21.124;2022-07-23T11:32:33;30.20;88.30
16700;DHT22;8466;52.286;21.124;2022-07-23T11:35:27;30.30;88.50
16700;DHT22;8466;52.286;21.124;2022-07-23T11:38:08;30.50;89.00
16700;DHT22;8466;52.286;21.124;2022-07-23T11:40:45;30.50;88.90
16700;DHT22;8466;52.286;21.124;2022-07-23T11:43:17;30.50;90.10
16700;DHT22;8466;52.286;21.124;2022-07-23T11:45:50;30.60;90.20
16700;DHT22;8466;52.286;21.124;2022-07-23T11:48:27;30.70;87.10
16700;DHT22;8466;52.286;21.124;2022-07-23T11:51:09;30.80;87.30
16700;DHT22;8466;52.286;21.124;2022-07-23T11:53:46;30.90;86.80
16700;DHT22;8466;52.286;21.124;2022-07-23T11:56:18;30.90;86.20
16700;DHT22;8466;52.286;21.124;2022-07-23T11:58:55;31.00;87.40
16700;DHT22;8466;52.286;21.124;2022-07-23T12:01:28;31.10;86.10
16700;DHT22;8466;52.286;21.124;2022-07-23T12:04:05;31.10;84.30
16700;DHT22;8466;52.286;21.124;2022-07-23T12:06:43;31.00;84.90
16700;DHT22;8466;52.286;21.124;2022-07-23T12:09:19;31.30;84.90
16700;DHT22;8466;52.286;21.124;2022-07-23T12:12:01;31.40;84.50
16700;DHT22;8466;52.286;21.124;2022-07-23T12:14:49;31.40;82.70
16700;DHT22;8466;52.286;21.124;2022-07-23T12:17:30;31.40;83.00
16700;DHT22;8466;52.286;21.124;2022-07-23T12:20:06;31.40;82.60
16700;DHT22;8466;52.286;21.124;2022-07-23T12:22:46;31.40;83.30
16700;DHT22;8466;52.286;21.124;2022-07-23T12:25:22;31.40;81.80
16700;DHT22;8466;52.286;21.124;2022-07-23T12:28:03;31.40;81.60
16700;DHT22;8466;52.286;21.124;2022-07-23T12:30:41;31.50;82.00
16700;DHT22;8466;52.286;21.124;2022-07-23T12:33:21;31.50;81.50
16700;DHT22;8466;52.286;21.124;2022-07-23T12:35:51;31.60;82.70
16700;DHT22;8466;52.286;21.124;2022-07-23T12:38:23;31.60;83.10
16700;DHT22;8466;52.286;21.124;2022-07-23T12:40:54;31.70;80.90
16700;DHT22;8466;52.286;21.124;2022-07-23T12:43:25;31.70;81.40
16700;DHT22;8466;52.286;21.124;2022-07-23T12:46:04;31.70;81.50
16700;DHT22;8466;52.286;21.124;2022-07-23T12:48:50;31.80;82.20
16700;DHT22;8466;52.286;21.124;2022-07-23T12:51:24;32.00;83.20
16700;DHT22;8466;52.286;21.124;2022-07-23T12:53:57;32.20;80.40
16700;DHT22;8466;52.286;21.124;2022-07-23T12:56:29;32.40;79.50
16700;DHT22;8466;52.286;21.124;2022-07-23T12:59:05;32.50;79.40
16700;DHT22;8466;52.286;21.124;2022-07-23T13:01:36;32.70;80.10
16700;DHT22;8466;52.286;21.124;2022-07-23T13:04:06;32.80;79.50
16700;DHT22;8466;52.286;21.124;2022-07-23T13:06:41;32.90;77.70
16700;DHT22;8466;52.286;21.124;2022-07-23T13:09:14;32.80;78.50
16700;DHT22;8466;52.286;21.124;2022-07-23T13:11:44;32.70;76.40
16700;DHT22;8466;52.286;21.124;2022-07-23T13:14:14;32.60;76.70
16700;DHT22;8466;52.286;21.124;2022-07-23T13:16:43;32.50;78.70
16700;DHT22;8466;52.286;21.124;2022-07-23T13:19:15;32.50;80.20
16700;DHT22;8466;52.286;21.124;2022-07-23T13:21:45;32.50;78.90
16700;DHT22;8466;52.286;21.124;2022-07-23T13:24:15;32.40;79.60
16700;DHT22;8466;52.286;21.124;2022-07-23T13:26:46;32.30;79.10
16700;DHT22;8466;52.286;21.124;2022-07-23T13:29:17;32.30;80.20
16700;DHT22;8466;52.286;21.124;2022-07-23T13:31:46;32.50;79.00
16700;DHT22;8466;52.286;21.124;2022-07-23T13:34:17;32.50;79.80
16700;DHT22;8466;52.286;21.124;2022-07-23T13:36:46;32.70;78.40
16700;DHT22;8466;52.286;21.124;2022-07-23T13:39:16;32.90;76.30
16700;DHT22;8466;52.286;21.124;2022-07-23T13:41:45;33.00;75.60
16700;DHT22;8466;52.286;21.124;2022-07-23T13:44:17;32.90;76.10
16700;DHT22;8466;52.286;21.124;2022-07-23T13:46:49;32.90;75.50
16700;DHT22;8466;52.286;21.124;2022-07-23T13:49:18;33.00;77.70
16700;DHT22;8466;52.286;21.124;2022-07-23T13:51:48;33.10;78.60
16700;DHT22;8466;52.286;21.124;2022-07-23T13:54:18;33.40;77.80
16700;DHT22;8466;52.286;21.124;2022-07-23T13:56:48;33.70;76.00
16700;DHT22;8466;52.286;21.124;2022-07-23T13:59:17;34.00;74.50
16700;DHT22;8466;52.286;21.124;2022-07-23T14:01:46;34.20;73.70
16700;DHT22;8466;52.286;21.124;2022-07-23T14:04:35;34.50;73.60
16700;DHT22;8466;52.286;21.124;2022-07-23T14:07:04;34.70;73.60
16700;DHT22;8466;52.286;21.124;2022-07-23T14:09:34;34.70;72.20
16700;DHT22;8466;52.286;21.124;2022-07-23T14:12:05;34.70;71.50
16700;DHT22;8466;52.286;21.124;2022-07-23T14:14:34;34.40;71.80
16700;DHT22;8466;52.286;21.124;2022-07-23T14:17:05;34.20;71.30
16700;DHT22;8466;52.286;21.124;2022-07-23T14:19:37;33.90;72.30
16700;DHT22;8466;52.286;21.124;2022-07-23T14:22:06;33.60;71.70
16700;DHT22;8466;52.286;21.124;2022-07-23T14:24:36;33.30;76.20
16700;DHT22;8466;52.286;21.124;2022-07-23T14:27:05;32.90;77.60
16700;DHT22;8466;52.286;21.124;2022-07-23T14:29:34;32.60;75.20
16700;DHT22;8466;52.286;21.124;2022-07-23T14:32:04;32.20;75.70
16700;DHT22;8466;52.286;21.124;2022-07-23T14:34:33;31.80;77.60
16700;DHT22;8466;52.286;21.124;2022-07-23T14:37:04;31.50;77.90
16700;DHT22;8466;52.286;21.124;2022-07-23T14:39:33;31.30;77.40
16700;DHT22;8466;52.286;21.124;2022-07-23T14:42:04;31.10;77.10
16700;DHT22;8466;52.286;21.124;2022-07-23T14:44:33;31.00;77.60
16700;DHT22;8466;52.286;21.124;2022-07-23T14:47:03;30.90;77.60
16700;DHT22;8466;52.286;21.124;2022-07-23T14:49:33;30.70;78.60
16700;DHT22;8466;52.286;21.124;2022-07-23T14:52:03;30.50;78.70
16700;DHT22;8466;52.286;21.124;2022-07-23T14:54:32;30.30;79.20
16700;DHT22;8466;52.286;21.124;2022-07-23T14:57:04;30.10;80.60
16700;DHT22;8466;52.286;21.124;2022-07-23T14:59:37;29.80;84.70
16700;DHT22;8466;52.286;21.124;2022-07-23T15:02:06;29.30;90.20
16700;DHT22;8466;52.286;21.124;2022-07-23T15:04:35;28.80;91.90
16700;DHT22;8466;52.286;21.124;2022-07-23T15:07:05;28.00;93.20
16700;DHT22;8466;52.286;21.124;2022-07-23T15:09:35;27.10;96.20
16700;DHT22;8466;52.286;21.124;2022-07-23T15:12:06;25.70;99.90
16700;DHT22;8466;52.286;21.124;2022-07-23T15:14:40;24.20;99.90
16700;DHT22;8466;52.286;21.124;2022-07-23T15:17:10;22.80;99.90
16700;DHT22;8466;52.286;21.124;2022-07-23T15:19:41;21.80;99.90
16700;DHT22;8466;52.286;21.124;2022-07-23T15:22:10;21.30;99.90
16700;DHT22;8466;52.286;21.124;2022-07-23T15:24:38;20.70;99.90
16700;DHT22;8466;52.286;21.124;2022-07-23T15:27:13;20.40;99.90
16700;DHT22;8466;52.286;21.124;2022-07-23T15:29:43;20.20;99.90
16700;DHT22;8466;52.286;21.124;2022-07-23T15:32:12;20.10;99.90
16700;DHT22;8466;52.286;21.124;2022-07-23T15:34:41;20.00;99.90
16700;DHT22;8466;52.286;21.124;2022-07-23T15:37:10;20.00;99.90
16700;DHT22;8466;52.286;21.124;2022-07-23T15:39:40;19.90;99.90
16700;DHT22;8466;52.286;21.124;2022-07-23T15:42:09;19.90;99.90
16700;DHT22;8466;52.286;21.124;2022-07-23T15:44:59;19.90;99.90
16700;DHT22;8466;52.286;21.124;2022-07-23T15:47:31;19.90;99.90
16700;DHT22;8466;52.286;21.124;2022-07-23T15:50:00;19.80;99.90
16700;DHT22;8466;52.286;21.124;2022-07-23T15:52:29;19.80;99.90
16700;DHT22;8466;52.286;21.124;2022-07-23T15:54:57;19.80;99.90
16700;DHT22;8466;52.286;21.124;2022-07-23T15:57:26;19.80;99.90
16700;DHT22;8466;52.286;21.124;2022-07-23T15:59:55;19.80;99.90